createdAt,value
2022-09-26T00:01:07.632Z,9.13
2022-09-26T00:03:35.817Z,7.97
2022-09-26T00:06:04.759Z,6.72
2022-09-26T00:08:32.928Z,10.02
2022-09-26T00:11:01.627Z,10.57
2022-09-26T00:13:30.051Z,6.97
2022-09-26T00:15:58.125Z,7.85
2022-09-26T00:18:26.117Z,8.38
2022-09-26T00:20:53.649Z,8.35
2022-09-26T00:23:21.231Z,7.07
2022-09-26T00:25:49.596Z,7.40
2022-09-26T00:28:17.880Z,7.95
2022-09-26T00:30:45.995Z,7.70
2022-09-26T00:33:14.060Z,9.73
2022-09-26T00:35:42.030Z,8.90
2022-09-26T00:38:09.720Z,10.00
2022-09-26T00:40:37.292Z,9.52
2022-09-26T00:43:05.073Z,10.73
2022-09-26T00:45:33.161Z,10.15
2022-09-26T00:48:02.524Z,11.18
2022-09-26T00:50:32.542Z,14.43
2022-09-26T00:53:03.434Z,13.02
2022-09-26T00:55:34.902Z,14.30
2022-09-26T00:58:05.320Z,11.65
2022-09-26T01:00:34.159Z,12.57
2022-09-26T01:03:02.134Z,12.05
2022-09-26T01:05:29.991Z,12.48
2022-09-26T01:07:58.087Z,13.07
2022-09-26T01:10:27.063Z,11.27
2022-09-26T01:12:55.911Z,11.02
2022-09-26T01:15:23.770Z,13.20
2022-09-26T01:17:51.638Z,11.65
2022-09-26T01:20:26.405Z,13.15
2022-09-26T01:23:13.239Z,10.82
2022-09-26T01:25:52.853Z,16.15
2022-09-26T01:28:50.615Z,13.00
2022-09-26T01:31:24.566Z,12.60
2022-09-26T01:33:57.296Z,10.60
2022-09-26T01:36:50.374Z,12.25
2022-09-26T01:39:32.045Z,11.13
2022-09-26T01:42:09.734Z,14.02
2022-09-26T01:44:49.709Z,10.57
2022-09-26T01:47:36.095Z,11.02
2022-09-26T01:50:10.008Z,10.95
2022-09-26T01:52:44.939Z,10.68
2022-09-26T01:55:22.327Z,11.23
2022-09-26T01:57:54.334Z,12.63
2022-09-26T02:00:22.184Z,11.35
2022-09-26T02:02:50.640Z,10.63
2022-09-26T02:05:25.715Z,11.10
2022-09-26T02:07:56.826Z,8.95
2022-09-26T02:10:36.335Z,10.77
2022-09-26T02:13:08.252Z,12.80
2022-09-26T02:15:36.744Z,12.27
2022-09-26T02:18:13.677Z,10.15
2022-09-26T02:20:47.042Z,10.80
2022-09-26T02:23:14.613Z,12.40
2022-09-26T02:25:42.352Z,11.00
2022-09-26T02:28:10.178Z,13.30
2022-09-26T02:30:37.933Z,12.30
2022-09-26T02:33:05.614Z,10.65
2022-09-26T02:35:53.250Z,11.73
2022-09-26T02:38:21.418Z,12.30
2022-09-26T02:41:13.279Z,12.20
2022-09-26T02:43:49.768Z,11.38
2022-09-26T02:46:38.414Z,11.50
2022-09-26T02:49:18.658Z,13.75
2022-09-26T02:52:07.348Z,10.23
2022-09-26T02:54:46.444Z,12.65
2022-09-26T02:57:43.012Z,10.65
2022-09-26T03:00:21.737Z,12.10
2022-09-26T03:02:49.328Z,11.70
2022-09-26T03:05:23.078Z,11.93
2022-09-26T03:08:09.997Z,14.27
2022-09-26T03:10:38.744Z,11.77
2022-09-26T03:13:10.890Z,13.70
2022-09-26T03:15:39.668Z,12.45
2022-09-26T03:18:08.405Z,11.95
2022-09-26T03:20:36.227Z,12.98
2022-09-26T03:23:04.634Z,14.23
2022-09-26T03:25:33.429Z,11.65
2022-09-26T03:28:10.468Z,11.15
2022-09-26T03:30:39.725Z,10.77
2022-09-26T03:33:26.027Z,10.32
2022-09-26T03:35:55.231Z,9.88
2022-09-26T03:38:23.659Z,10.82
2022-09-26T03:41:02.763Z,11.18
2022-09-26T03:43:59.768Z,12.38
2022-09-26T03:49:08.166Z,11.65
2022-09-26T03:51:35.840Z,9.90
2022-09-26T03:54:03.532Z,11.25
2022-09-26T03:56:31.121Z,11.45
2022-09-26T03:58:58.717Z,12.50
2022-09-26T04:01:26.875Z,11.38
2022-09-26T04:03:54.466Z,12.50
2022-09-26T04:06:22.792Z,12.93
2022-09-26T04:08:52.148Z,12.48
2022-09-26T04:11:21.428Z,11.40
2022-09-26T04:13:52.799Z,12.30
2022-09-26T04:16:24.301Z,9.82
2022-09-26T04:19:01.933Z,12.43
2022-09-26T04:21:29.810Z,12.68
2022-09-26T04:23:59.809Z,13.70
2022-09-26T04:26:28.059Z,12.93
2022-09-26T04:28:56.989Z,14.25
2022-09-26T04:31:37.715Z,11.32
2022-09-26T04:34:11.514Z,14.45
2022-09-26T04:36:39.505Z,11.20
2022-09-26T04:39:07.139Z,14.02
2022-09-26T04:41:36.139Z,12.65
2022-09-26T04:44:03.848Z,13.23
2022-09-26T04:46:32.905Z,12.38
2022-09-26T04:49:02.053Z,11.93
2022-09-26T04:51:31.557Z,10.77
2022-09-26T04:54:00.130Z,12.35
2022-09-26T04:56:29.759Z,14.32
2022-09-26T04:58:58.358Z,12.07
2022-09-26T05:01:30.492Z,12.30
2022-09-26T05:04:04.022Z,13.20
2022-09-26T05:06:33.203Z,13.95
2022-09-26T05:09:04.131Z,12.73
2022-09-26T05:11:51.962Z,12.27
2022-09-26T05:14:19.562Z,16.10
2022-09-26T05:16:48.649Z,12.90
2022-09-26T05:19:17.528Z,14.40
2022-09-26T05:22:04.029Z,13.88
2022-09-26T05:24:50.240Z,13.27
2022-09-26T05:27:19.160Z,13.55
2022-09-26T05:30:51.304Z,15.80
2022-09-26T05:33:20.114Z,13.02
2022-09-26T05:35:53.580Z,12.80
2022-09-26T05:38:21.263Z,11.70
2022-09-26T05:40:57.968Z,12.93
2022-09-26T05:43:31.360Z,9.95
2022-09-26T05:45:59.184Z,14.52
2022-09-26T05:50:57.381Z,12.25
2022-09-26T05:53:25.743Z,12.38
2022-09-26T05:55:54.078Z,10.55
2022-09-26T05:58:32.060Z,11.30
2022-09-26T06:01:28.354Z,10.60
2022-09-26T06:04:05.512Z,15.27
2022-09-26T06:06:42.495Z,12.88
2022-09-26T06:09:12.804Z,11.52
2022-09-26T06:11:58.964Z,10.93
2022-09-26T06:14:27.179Z,10.73
2022-09-26T06:16:55.157Z,17.30
2022-09-26T06:19:23.257Z,13.52
2022-09-26T06:21:51.324Z,12.35
2022-09-26T06:24:20.250Z,11.10
2022-09-26T06:26:50.769Z,13.43
2022-09-26T06:29:18.657Z,9.18
2022-09-26T06:31:47.436Z,10.82
2022-09-26T06:34:35.365Z,10.82
2022-09-26T06:37:21.564Z,9.52
2022-09-26T06:39:49.303Z,10.43
2022-09-26T06:42:16.902Z,9.95
2022-09-26T06:44:57.080Z,10.75
2022-09-26T06:47:24.939Z,13.30
2022-09-26T06:50:22.278Z,9.55
2022-09-26T06:52:53.652Z,13.23
2022-09-26T06:55:22.513Z,9.93
2022-09-26T06:57:50.274Z,10.32
2022-09-26T07:00:19.285Z,8.52
2022-09-26T07:03:05.584Z,11.00
2022-09-26T07:05:51.664Z,10.88
2022-09-26T07:08:19.294Z,10.80
2022-09-26T07:10:47.686Z,9.35
2022-09-26T07:13:29.247Z,10.18
2022-09-26T07:15:58.924Z,10.60
2022-09-26T07:18:45.099Z,9.85
2022-09-26T07:21:31.401Z,9.32
2022-09-26T07:24:08.652Z,8.85
2022-09-26T07:26:36.394Z,10.38
2022-09-26T07:29:04.936Z,11.15
2022-09-26T07:31:32.641Z,9.73
2022-09-26T07:34:07.660Z,7.88
2022-09-26T07:36:37.153Z,9.88
2022-09-26T07:39:05.175Z,7.60
2022-09-26T07:41:33.550Z,9.55
2022-09-26T07:45:01.915Z,9.25
2022-09-26T07:47:08.116Z,21.45
2022-09-26T07:49:54.996Z,9.57
2022-09-26T07:52:36.203Z,10.18
2022-09-26T07:55:58.940Z,8.77
2022-09-26T07:58:41.818Z,11.30
2022-09-26T08:01:29.737Z,9.18
2022-09-26T08:04:00.466Z,8.45
2022-09-26T08:06:36.889Z,11.35
2022-09-26T08:09:05.164Z,9.65
2022-09-26T08:11:51.319Z,9.63
2022-09-26T08:14:52.955Z,10.60
2022-09-26T08:17:32.939Z,11.82
2022-09-26T08:20:01.143Z,10.23
2022-09-26T08:22:28.986Z,8.45
2022-09-26T08:24:56.816Z,10.25
2022-09-26T08:27:43.717Z,9.52
2022-09-26T08:30:12.339Z,9.50
2022-09-26T08:32:40.463Z,7.25
2022-09-26T08:35:12.224Z,7.65
2022-09-26T08:38:01.788Z,10.65
2022-09-26T08:41:01.335Z,7.88
2022-09-26T08:43:58.078Z,6.03
2022-09-26T08:47:00.413Z,8.48
2022-09-26T08:50:03.054Z,6.93
2022-09-26T08:52:33.964Z,6.70
2022-09-26T08:55:06.311Z,5.72
2022-09-26T08:57:46.165Z,8.05
2022-09-26T09:00:13.931Z,6.18
2022-09-26T09:02:44.917Z,6.28
2022-09-26T09:05:35.173Z,5.93
2022-09-26T09:08:07.965Z,8.05
2022-09-26T09:10:58.701Z,5.75
2022-09-26T09:13:48.069Z,7.47
2022-09-26T09:17:08.125Z,5.78
2022-09-26T09:19:53.882Z,5.13
2022-09-26T09:23:32.581Z,6.38
2022-09-26T09:29:18.982Z,5.30
2022-09-26T09:32:06.623Z,5.20
2022-09-26T09:34:54.646Z,5.57
2022-09-26T09:37:52.912Z,5.60
2022-09-26T09:40:28.786Z,4.47
2022-09-26T09:43:04.805Z,4.90
2022-09-26T09:45:35.764Z,4.72
2022-09-26T09:48:04.580Z,3.80
2022-09-26T09:50:41.059Z,2.63
2022-09-26T09:53:24.014Z,2.25
2022-09-26T09:55:57.714Z,5.75
2022-09-26T09:58:31.481Z,4.03
2022-09-26T10:01:08.543Z,2.95
2022-09-26T10:04:03.407Z,4.38
2022-09-26T10:06:45.069Z,4.68
2022-09-26T10:09:35.944Z,2.40
2022-09-26T10:12:40.927Z,2.55
2022-09-26T10:15:27.525Z,2.90
2022-09-26T10:18:26.829Z,4.40
2022-09-26T10:21:16.194Z,4.30
2022-09-26T10:23:46.784Z,3.80
2022-09-26T10:26:35.931Z,3.28
2022-09-26T10:29:20.163Z,2.93
2022-09-26T10:31:55.576Z,3.97
2022-09-26T10:34:31.268Z,2.72
2022-09-26T10:37:18.533Z,5.13
2022-09-26T10:40:11.744Z,4.45
2022-09-26T10:42:40.744Z,3.00
2022-09-26T10:45:14.082Z,4.93
2022-09-26T10:48:00.216Z,4.38
2022-09-26T10:50:51.554Z,2.72
2022-09-26T10:53:42.597Z,3.83
2022-09-26T10:56:16.933Z,5.20
2022-09-26T10:58:46.875Z,3.78
2022-09-26T11:01:21.007Z,4.45
2022-09-26T11:03:50.960Z,2.83
2022-09-26T11:06:46.998Z,3.50
2022-09-26T11:09:38.912Z,3.20
2022-09-26T11:12:30.748Z,2.78
2022-09-26T11:15:09.033Z,3.80
2022-09-26T11:17:45.024Z,2.53
2022-09-26T11:20:17.474Z,4.13
2022-09-26T11:23:02.914Z,2.35
2022-09-26T11:25:52.315Z,2.45
2022-09-26T11:28:31.451Z,4.38
2022-09-26T11:31:27.676Z,3.38
2022-09-26T11:34:23.750Z,3.45
2022-09-26T11:37:01.641Z,2.90
2022-09-26T11:40:09.909Z,3.25
2022-09-26T11:42:43.026Z,3.25
2022-09-26T11:45:15.176Z,2.83
2022-09-26T11:48:21.695Z,4.80
2022-09-26T11:56:23.287Z,2.78
2022-09-26T11:59:02.235Z,2.00
2022-09-26T12:01:35.467Z,3.38
2022-09-26T12:04:12.084Z,3.00
2022-09-26T12:06:54.046Z,3.38
2022-09-26T12:09:47.351Z,2.10
2022-09-26T12:12:28.321Z,2.47
2022-09-26T12:15:15.018Z,3.25
2022-09-26T12:17:42.597Z,4.07
2022-09-26T12:20:13.998Z,2.42
2022-09-26T12:22:47.418Z,2.25
2022-09-26T12:25:36.986Z,5.63
2022-09-26T12:28:12.840Z,5.40
2022-09-26T12:30:43.700Z,2.10
2022-09-26T12:36:00.370Z,3.13
2022-09-26T12:38:40.259Z,1.70
2022-09-26T12:41:14.213Z,2.50
2022-09-26T12:44:00.515Z,5.28
2022-09-26T12:46:40.740Z,2.35
2022-09-26T12:49:11.464Z,3.38
2022-09-26T12:51:47.257Z,2.10
2022-09-26T12:54:23.495Z,1.63
2022-09-26T12:57:10.004Z,4.97
2022-09-26T12:59:49.723Z,1.70
2022-09-26T13:02:33.429Z,2.72
2022-09-26T13:05:14.851Z,4.78
2022-09-26T13:08:02.155Z,1.50
2022-09-26T13:10:37.008Z,2.42
2022-09-26T13:13:24.083Z,1.63
2022-09-26T13:16:08.019Z,6.22
2022-09-26T13:18:39.816Z,1.98
2022-09-26T13:21:12.061Z,2.08
2022-09-26T13:23:45.617Z,2.17
2022-09-26T13:26:25.920Z,2.92
2022-09-26T13:29:16.336Z,3.45
2022-09-26T13:31:56.116Z,3.63
2022-09-26T13:34:27.761Z,0.90
2022-09-26T13:36:56.867Z,5.18
2022-09-26T13:39:49.681Z,4.60
2022-09-26T13:42:43.683Z,1.90
2022-09-26T13:45:22.621Z,2.47
2022-09-26T13:47:50.137Z,2.10
2022-09-26T13:50:18.446Z,2.28
2022-09-26T13:53:09.989Z,1.33
2022-09-26T13:55:37.703Z,4.75
2022-09-26T13:58:10.053Z,3.10
2022-09-26T14:00:41.372Z,1.17
2022-09-26T14:03:18.225Z,1.77
2022-09-26T14:05:49.920Z,1.80
2022-09-26T14:09:07.065Z,3.65
2022-09-26T14:11:51.647Z,3.22
2022-09-26T14:14:24.399Z,1.35
2022-09-26T14:16:53.214Z,2.47
2022-09-26T14:19:38.251Z,2.17
2022-09-26T14:22:26.430Z,1.40
2022-09-26T14:24:57.210Z,2.15
2022-09-26T14:27:25.966Z,1.83
2022-09-26T14:29:58.846Z,3.80
2022-09-26T14:32:36.368Z,2.20
2022-09-26T14:35:15.879Z,2.72
2022-09-26T14:37:44.425Z,5.10
2022-09-26T14:40:20.191Z,4.22
2022-09-26T14:42:47.918Z,2.80
2022-09-26T14:45:16.562Z,4.97
2022-09-26T14:47:48.257Z,1.55
2022-09-26T14:50:18.780Z,3.03
2022-09-26T14:52:54.421Z,1.40
2022-09-26T14:55:22.337Z,2.28
2022-09-26T14:57:50.007Z,1.63
2022-09-26T15:00:36.575Z,1.52
2022-09-26T15:03:06.700Z,3.08
2022-09-26T15:05:34.621Z,1.33
2022-09-26T15:08:02.576Z,2.10
2022-09-26T15:10:42.002Z,2.00
2022-09-26T15:13:29.980Z,1.95
2022-09-26T15:16:02.368Z,1.77
2022-09-26T15:18:40.223Z,5.18
2022-09-26T15:21:26.831Z,1.25
2022-09-26T15:23:56.190Z,2.97
2022-09-26T15:26:25.582Z,0.85
2022-09-26T15:28:53.844Z,1.77
2022-09-26T15:31:23.397Z,3.25
2022-09-26T15:34:11.430Z,3.33
2022-09-26T15:36:40.481Z,1.83
2022-09-26T15:39:26.876Z,1.20
2022-09-26T15:42:13.165Z,1.42
2022-09-26T15:44:48.682Z,1.10
2022-09-26T15:47:35.125Z,0.95
2022-09-26T15:50:25.963Z,1.23
2022-09-26T15:52:55.298Z,2.00
2022-09-26T15:55:25.368Z,1.85
2022-09-26T15:57:54.219Z,2.93
2022-09-26T16:00:21.936Z,1.60
2022-09-26T16:02:49.739Z,2.88
2022-09-26T16:05:19.194Z,4.13
2022-09-26T16:07:51.515Z,2.28
2022-09-26T16:10:28.491Z,1.83
2022-09-26T16:12:58.329Z,1.02
2022-09-26T16:15:28.884Z,2.28
2022-09-26T16:18:00.498Z,2.40
2022-09-26T16:20:30.047Z,1.75
2022-09-26T16:23:04.122Z,1.67
2022-09-26T16:25:49.547Z,1.95
2022-09-26T16:28:23.234Z,1.95
2022-09-26T16:30:59.805Z,2.22
2022-09-26T16:33:27.552Z,2.92
2022-09-26T16:35:55.680Z,2.05
2022-09-26T16:38:36.891Z,1.25
2022-09-26T16:41:10.128Z,2.20
2022-09-26T16:43:39.762Z,2.42
2022-09-26T16:46:13.591Z,4.75
2022-09-26T16:48:42.927Z,2.55
2022-09-26T16:51:18.213Z,1.38
2022-09-26T16:53:47.106Z,1.77
2022-09-26T16:56:16.365Z,1.88
2022-09-26T16:58:58.391Z,1.42
2022-09-26T17:01:48.182Z,1.95
2022-09-26T17:04:20.415Z,3.78
2022-09-26T17:06:48.188Z,3.38
2022-09-26T17:09:22.163Z,3.13
2022-09-26T17:11:51.869Z,2.17
2022-09-26T17:14:27.566Z,2.90
2022-09-26T17:17:02.357Z,1.88
2022-09-26T17:19:31.179Z,1.48
2022-09-26T17:22:01.713Z,1.30
2022-09-26T17:24:39.582Z,2.63
2022-09-26T17:27:08.659Z,1.98
2022-09-26T17:29:40.158Z,1.63
2022-09-26T17:32:12.926Z,2.95
2022-09-26T17:34:40.492Z,3.22
2022-09-26T17:37:11.362Z,1.80
2022-09-26T17:39:38.997Z,3.38
2022-09-26T17:42:06.987Z,2.63
2022-09-26T17:44:37.963Z,1.40
2022-09-26T17:49:35.903Z,2.30
2022-09-26T17:52:08.452Z,3.53
2022-09-26T17:54:42.870Z,3.88
2022-09-26T17:57:14.698Z,1.55
2022-09-26T17:59:50.708Z,1.90
2022-09-26T18:02:32.996Z,1.63
2022-09-26T18:05:05.024Z,5.43
2022-09-26T18:07:38.937Z,3.60
2022-09-26T18:10:09.332Z,1.95
2022-09-26T18:12:37.075Z,1.77
2022-09-26T18:15:05.739Z,2.80
2022-09-26T18:17:33.329Z,3.47
2022-09-26T18:20:08.916Z,4.68
2022-09-26T18:22:39.663Z,1.88
2022-09-26T18:25:08.344Z,2.92
2022-09-26T18:27:42.053Z,3.20
2022-09-26T18:30:18.679Z,3.45
2022-09-26T18:32:51.063Z,2.83
2022-09-26T18:35:19.983Z,2.70
2022-09-26T18:37:47.618Z,4.15
2022-09-26T18:40:16.105Z,1.45
2022-09-26T18:42:48.225Z,6.15
2022-09-26T18:45:20.666Z,2.90
2022-09-26T18:47:49.269Z,3.45
2022-09-26T18:50:27.770Z,3.10
2022-09-26T18:52:55.340Z,3.40
2022-09-26T18:55:43.772Z,3.20
2022-09-26T18:58:27.398Z,2.75
2022-09-26T19:01:00.310Z,4.07
2022-09-26T19:03:29.819Z,3.13
2022-09-26T19:06:06.116Z,3.80
2022-09-26T19:08:42.947Z,3.60
2022-09-26T19:11:18.154Z,4.25
2022-09-26T19:13:47.315Z,3.88
2022-09-26T19:16:19.449Z,4.05
2022-09-26T19:18:47.929Z,3.28
2022-09-26T19:21:35.394Z,2.78
2022-09-26T19:24:08.557Z,5.80
2022-09-26T19:26:38.722Z,3.92
2022-09-26T19:29:11.929Z,3.73
2022-09-26T19:31:40.925Z,2.85
2022-09-26T19:34:10.391Z,3.00
2022-09-26T19:36:39.739Z,5.35
2022-09-26T19:39:14.824Z,2.45
2022-09-26T19:41:42.629Z,2.80
2022-09-26T19:44:10.359Z,6.50
2022-09-26T19:46:38.378Z,2.30
2022-09-26T19:49:06.690Z,3.20
2022-09-26T19:51:45.124Z,2.72
2022-09-26T19:54:17.662Z,3.22
2022-09-26T19:56:46.670Z,3.28
2022-09-26T19:59:17.094Z,2.47
2022-09-26T20:01:46.561Z,1.90
2022-09-26T20:04:15.752Z,4.78
2022-09-26T20:06:43.605Z,6.07
2022-09-26T20:09:15.646Z,3.65
2022-09-26T20:11:43.311Z,4.55
2022-09-26T20:14:26.295Z,5.57
2022-09-26T20:16:55.508Z,3.90
2022-09-26T20:19:34.276Z,4.00
2022-09-26T20:22:07.355Z,3.67
2022-09-26T20:24:37.231Z,2.42
2022-09-26T20:27:07.466Z,2.20
2022-09-26T20:29:55.579Z,1.87
2022-09-26T20:32:23.133Z,3.50
2022-09-26T20:34:50.693Z,2.70
2022-09-26T20:37:22.360Z,2.38
2022-09-26T20:39:50.242Z,1.92
2022-09-26T20:42:20.018Z,2.10
2022-09-26T20:44:53.669Z,1.92
2022-09-26T20:47:29.533Z,3.60
2022-09-26T20:50:01.616Z,2.65
2022-09-26T20:52:32.112Z,2.88
2022-09-26T20:55:08.347Z,1.90
2022-09-26T20:57:38.124Z,0.85
2022-09-26T21:00:14.463Z,1.38
2022-09-26T21:02:43.339Z,1.23
2022-09-26T21:05:18.932Z,1.40
2022-09-26T21:07:50.662Z,1.52
2022-09-26T21:10:22.660Z,0.57
2022-09-26T21:12:57.608Z,1.45
2022-09-26T21:15:28.450Z,3.50
2022-09-26T21:18:04.392Z,1.92
2022-09-26T21:20:34.306Z,1.77
2022-09-26T21:23:29.066Z,0.95
2022-09-26T21:26:00.687Z,1.10
2022-09-26T21:28:36.606Z,1.27
2022-09-26T21:33:24.188Z,1.40
2022-09-26T21:35:52.930Z,0.63
2022-09-26T21:38:21.137Z,1.20
2022-09-26T21:40:54.695Z,1.42
2022-09-26T21:43:23.765Z,0.93
2022-09-26T21:45:51.454Z,4.22
2022-09-26T21:48:19.103Z,1.42
2022-09-26T21:50:52.880Z,2.47
2022-09-26T21:53:25.681Z,0.93
2022-09-26T21:55:55.928Z,1.47
2022-09-26T21:58:27.418Z,1.67
2022-09-26T22:00:55.867Z,1.17
2022-09-26T22:03:23.386Z,6.28
2022-09-26T22:05:51.057Z,2.35
2022-09-26T22:08:18.620Z,0.65
2022-09-26T22:10:46.274Z,0.60
2022-09-26T22:13:13.854Z,0.63
2022-09-26T22:15:41.366Z,0.40
2022-09-26T22:18:09.896Z,0.60
2022-09-26T22:20:37.507Z,2.15
2022-09-26T22:23:04.998Z,3.90
2022-09-26T22:25:32.704Z,5.70
2022-09-26T22:28:00.199Z,1.48
2022-09-26T22:30:27.932Z,0.93
2022-09-26T22:32:55.538Z,0.75
2022-09-26T22:35:23.177Z,1.48
2022-09-26T22:37:50.656Z,2.70
2022-09-26T22:40:18.330Z,0.55
2022-09-26T22:42:46.002Z,1.27
2022-09-26T22:45:13.750Z,1.95
2022-09-26T22:47:41.582Z,1.40
2022-09-26T22:50:09.217Z,0.93
2022-09-26T22:52:36.702Z,1.83
2022-09-26T22:55:04.465Z,1.20
2022-09-26T22:57:32.792Z,2.53
2022-09-26T23:00:01.889Z,0.63
2022-09-26T23:02:29.466Z,0.80
2022-09-26T23:04:57.116Z,1.30
2022-09-26T23:07:24.668Z,2.85
2022-09-26T23:09:52.301Z,0.55
2022-09-26T23:12:19.790Z,0.30
2022-09-26T23:14:47.521Z,0.65
2022-09-26T23:17:15.089Z,1.30
2022-09-26T23:19:42.777Z,0.70
2022-09-26T23:22:10.316Z,1.50
2022-09-26T23:24:37.927Z,1.27
2022-09-26T23:27:05.607Z,0.80
2022-09-26T23:29:33.184Z,0.45
2022-09-26T23:32:00.742Z,0.82
2022-09-26T23:34:28.292Z,0.63
2022-09-26T23:36:55.848Z,0.55
2022-09-26T23:39:23.345Z,2.33
2022-09-26T23:41:50.881Z,0.30
2022-09-26T23:44:18.419Z,1.63
2022-09-26T23:46:46.143Z,1.10
2022-09-26T23:49:13.786Z,0.60
2022-09-26T23:51:42.327Z,0.75
2022-09-26T23:54:10.332Z,0.40
2022-09-26T23:56:37.883Z,0.50
2022-09-26T23:59:05.465Z,1.67
